createdAt,value
2019-06-26T00:00:31.169Z,26.30
2019-06-26T00:02:59.148Z,26.40
2019-06-26T00:05:27.026Z,26.30
2019-06-26T00:07:54.811Z,26.30
2019-06-26T00:10:22.660Z,26.20
2019-06-26T00:12:50.483Z,26.20
2019-06-26T00:15:18.395Z,26.20
2019-06-26T00:17:46.186Z,26.30
2019-06-26T00:20:14.505Z,26.20
2019-06-26T00:22:42.308Z,26.20
2019-06-26T00:25:10.288Z,26.10
2019-06-26T00:27:38.060Z,26.10
2019-06-26T00:30:06.217Z,26.20
2019-06-26T00:32:34.079Z,26.20
2019-06-26T00:35:01.927Z,26.20
2019-06-26T00:37:29.733Z,26.20
2019-06-26T00:39:57.573Z,26.20
2019-06-26T00:42:25.411Z,26.10
2019-06-26T00:44:53.221Z,26.10
2019-06-26T00:47:21.017Z,26.00
2019-06-26T00:49:48.804Z,25.90
2019-06-26T00:52:17.017Z,25.80
2019-06-26T00:54:44.800Z,25.70
2019-06-26T00:57:12.646Z,25.70
2019-06-26T00:59:40.425Z,25.80
2019-06-26T01:02:08.499Z,25.60
2019-06-26T01:04:39.612Z,25.60
2019-06-26T01:07:07.542Z,25.60
2019-06-26T01:09:35.560Z,25.60
2019-06-26T01:12:03.405Z,25.70
2019-06-26T01:14:31.199Z,25.70
2019-06-26T01:16:59.016Z,25.80
2019-06-26T01:19:26.833Z,25.80
2019-06-26T01:21:54.691Z,25.80
2019-06-26T01:24:22.468Z,25.90
2019-06-26T01:26:50.294Z,25.90
2019-06-26T01:29:18.092Z,25.80
2019-06-26T01:31:45.888Z,25.90
2019-06-26T01:34:13.748Z,25.90
2019-06-26T01:36:41.553Z,25.80
2019-06-26T01:39:09.337Z,25.80
2019-06-26T01:41:37.140Z,25.60
2019-06-26T01:44:15.023Z,25.60
2019-06-26T01:46:34.708Z,25.60
2019-06-26T01:49:02.567Z,25.60
2019-06-26T01:51:30.348Z,25.60
2019-06-26T01:53:58.138Z,25.60
2019-06-26T01:56:25.928Z,25.40
2019-06-26T01:58:53.716Z,25.30
2019-06-26T02:01:21.767Z,25.20
2019-06-26T02:03:49.546Z,25.20
2019-06-26T02:06:17.345Z,25.30
2019-06-26T02:08:45.136Z,25.30
2019-06-26T02:11:12.940Z,25.30
2019-06-26T02:13:40.733Z,25.40
2019-06-26T02:16:08.807Z,25.40
2019-06-26T02:18:43.613Z,25.50
2019-06-26T02:21:11.376Z,25.50
2019-06-26T02:23:39.269Z,25.50
2019-06-26T02:26:07.067Z,25.60
2019-06-26T02:28:34.854Z,25.60
2019-06-26T02:31:02.638Z,25.40
2019-06-26T02:33:30.438Z,25.40
2019-06-26T02:35:58.228Z,25.20
2019-06-26T02:38:26.014Z,25.10
2019-06-26T02:40:53.805Z,25.00
2019-06-26T02:43:21.858Z,25.00
2019-06-26T02:45:49.695Z,24.90
2019-06-26T02:48:17.474Z,24.90
2019-06-26T02:50:45.267Z,25.00
2019-06-26T02:53:13.065Z,24.90
2019-06-26T02:55:40.886Z,25.00
2019-06-26T02:58:08.723Z,25.00
2019-06-26T03:00:36.592Z,24.90
2019-06-26T03:03:04.541Z,24.80
2019-06-26T03:05:32.328Z,24.90
2019-06-26T03:08:00.144Z,24.90
2019-06-26T03:10:27.933Z,25.00
2019-06-26T03:12:55.762Z,25.00
2019-06-26T03:15:23.548Z,24.90
2019-06-26T03:17:55.700Z,25.00
2019-06-26T03:20:22.712Z,25.00
2019-06-26T03:22:50.542Z,25.00
2019-06-26T03:25:18.321Z,25.00
2019-06-26T03:27:46.116Z,25.00
2019-06-26T03:30:14.282Z,25.00
2019-06-26T03:32:42.089Z,24.90
2019-06-26T03:35:09.964Z,25.00
2019-06-26T03:37:37.824Z,25.10
2019-06-26T03:40:05.721Z,25.10
2019-06-26T03:42:33.550Z,25.10
2019-06-26T03:45:01.578Z,25.00
2019-06-26T03:47:29.668Z,25.10
2019-06-26T03:49:57.527Z,25.30
2019-06-26T03:52:25.329Z,25.50
2019-06-26T03:54:53.144Z,25.50
2019-06-26T03:57:21.487Z,25.70
2019-06-26T03:59:49.308Z,25.80
2019-06-26T04:02:17.212Z,26.00
2019-06-26T04:04:45.005Z,26.10
2019-06-26T04:07:12.793Z,26.20
2019-06-26T04:09:41.056Z,26.30
2019-06-26T04:12:08.901Z,26.40
2019-06-26T04:14:55.948Z,26.40
2019-06-26T04:17:23.720Z,26.50
2019-06-26T04:19:51.515Z,26.60
2019-06-26T04:22:19.358Z,26.60
2019-06-26T04:24:47.161Z,26.60
2019-06-26T04:27:14.948Z,26.60
2019-06-26T04:29:42.795Z,26.70
2019-06-26T04:32:10.796Z,26.80
2019-06-26T04:34:38.614Z,26.80
2019-06-26T04:37:06.379Z,26.90
2019-06-26T04:39:34.183Z,26.80
2019-06-26T04:42:01.979Z,26.80
2019-06-26T04:44:29.772Z,26.90
2019-06-26T04:46:57.555Z,26.90
2019-06-26T04:49:25.392Z,26.70
2019-06-26T04:51:53.223Z,26.80
2019-06-26T04:54:21.031Z,26.80
2019-06-26T04:56:48.816Z,26.80
2019-06-26T04:59:16.689Z,26.80
2019-06-26T05:01:44.489Z,26.90
2019-06-26T05:04:12.252Z,26.80
2019-06-26T05:06:40.357Z,26.90
2019-06-26T05:09:08.160Z,26.90
2019-06-26T05:11:35.945Z,27.00
2019-06-26T05:14:04.013Z,27.10
2019-06-26T05:16:31.821Z,27.20
2019-06-26T05:18:59.593Z,27.10
2019-06-26T05:21:27.415Z,27.10
2019-06-26T05:23:55.216Z,27.00
2019-06-26T05:26:23.012Z,27.00
2019-06-26T05:28:50.886Z,27.00
2019-06-26T05:31:18.694Z,27.00
2019-06-26T05:33:46.489Z,27.00
2019-06-26T05:36:14.280Z,27.00
2019-06-26T05:38:42.340Z,27.00
2019-06-26T05:41:10.137Z,27.00
2019-06-26T05:43:37.928Z,27.00
2019-06-26T05:46:05.845Z,27.00
2019-06-26T05:48:33.702Z,27.10
2019-06-26T05:51:01.558Z,27.20
2019-06-26T05:53:29.460Z,27.20
2019-06-26T05:55:57.320Z,27.20
2019-06-26T05:58:25.108Z,27.20
2019-06-26T06:00:52.903Z,27.20
2019-06-26T06:03:20.698Z,27.30
2019-06-26T06:05:48.481Z,27.40
2019-06-26T06:08:16.288Z,27.40
2019-06-26T06:10:44.122Z,27.40
2019-06-26T06:13:11.928Z,27.50
2019-06-26T06:15:39.977Z,27.60
2019-06-26T06:18:07.817Z,27.60
2019-06-26T06:20:37.512Z,27.70
2019-06-26T06:23:05.327Z,27.70
2019-06-26T06:25:33.112Z,27.80
2019-06-26T06:28:00.912Z,27.90
2019-06-26T06:30:28.712Z,27.90
2019-06-26T06:32:56.518Z,28.00
2019-06-26T06:35:27.388Z,28.00
2019-06-26T06:37:55.450Z,28.00
2019-06-26T06:40:23.416Z,27.90
2019-06-26T06:42:51.673Z,27.90
2019-06-26T06:45:19.678Z,28.00
2019-06-26T06:47:47.528Z,28.00
2019-06-26T06:50:15.433Z,28.10
2019-06-26T06:52:43.237Z,28.10
2019-06-26T06:55:11.323Z,28.20
2019-06-26T06:57:39.184Z,28.20
2019-06-26T07:00:07.269Z,28.20
2019-06-26T07:02:35.208Z,28.40
2019-06-26T07:05:03.155Z,28.40
2019-06-26T07:07:30.987Z,28.40
2019-06-26T07:09:58.817Z,28.40
2019-06-26T07:12:26.612Z,28.40
2019-06-26T07:14:54.410Z,28.50
2019-06-26T07:17:22.204Z,28.50
2019-06-26T07:19:50.097Z,28.50
2019-06-26T07:22:17.890Z,28.60
2019-06-26T07:24:45.900Z,28.60
2019-06-26T07:27:13.833Z,28.70
2019-06-26T07:29:41.642Z,28.80
2019-06-26T07:32:09.730Z,28.90
2019-06-26T07:34:37.675Z,29.00
2019-06-26T07:37:05.483Z,29.00
2019-06-26T07:39:33.277Z,28.80
2019-06-26T07:42:01.147Z,28.90
2019-06-26T07:44:29.317Z,29.00
2019-06-26T07:46:57.105Z,29.10
2019-06-26T07:49:25.193Z,29.10
2019-06-26T07:51:53.323Z,28.90
2019-06-26T07:54:21.153Z,29.00
2019-06-26T07:56:49.229Z,29.00
2019-06-26T07:59:17.101Z,29.00
2019-06-26T08:01:44.885Z,29.10
2019-06-26T08:04:12.711Z,29.20
2019-06-26T08:06:40.627Z,29.10
2019-06-26T08:09:08.761Z,29.30
2019-06-26T08:11:36.820Z,29.20
2019-06-26T08:14:04.795Z,29.30
2019-06-26T08:16:34.439Z,29.40
2019-06-26T08:19:02.123Z,29.40
2019-06-26T08:21:29.905Z,29.40
2019-06-26T08:23:57.748Z,29.40
2019-06-26T08:26:25.617Z,29.60
2019-06-26T08:28:53.397Z,29.60
2019-06-26T08:31:21.359Z,29.60
2019-06-26T08:33:49.269Z,29.70
2019-06-26T08:36:17.068Z,29.70
2019-06-26T08:38:44.880Z,29.60
2019-06-26T08:41:12.689Z,29.70
2019-06-26T08:43:40.519Z,29.60
2019-06-26T08:46:08.320Z,29.70
2019-06-26T08:48:40.118Z,29.80
2019-06-26T08:51:05.694Z,29.70
2019-06-26T08:53:33.588Z,29.80
2019-06-26T08:56:01.441Z,29.80
2019-06-26T08:58:29.554Z,29.70
2019-06-26T09:00:57.391Z,29.80
2019-06-26T09:03:25.175Z,29.80
2019-06-26T09:05:52.973Z,29.90
2019-06-26T09:08:20.937Z,30.00
2019-06-26T09:10:49.825Z,30.10
2019-06-26T09:13:17.674Z,30.10
2019-06-26T09:15:49.532Z,30.20
2019-06-26T09:18:15.121Z,30.10
2019-06-26T09:20:43.100Z,30.20
2019-06-26T09:23:11.301Z,30.30
2019-06-26T09:25:39.110Z,30.30
2019-06-26T09:28:06.953Z,30.20
2019-06-26T09:30:34.760Z,30.40
2019-06-26T09:33:02.552Z,30.40
2019-06-26T09:35:30.821Z,30.40
2019-06-26T09:37:58.573Z,30.60
2019-06-26T09:40:26.374Z,30.80
2019-06-26T09:42:54.161Z,30.70
2019-06-26T09:45:21.952Z,30.60
2019-06-26T09:47:49.852Z,30.70
2019-06-26T09:50:18.096Z,30.90
2019-06-26T09:52:45.904Z,30.90
2019-06-26T09:55:14.060Z,30.70
2019-06-26T09:57:41.854Z,30.60
2019-06-26T10:00:28.899Z,30.40
2019-06-26T10:02:56.700Z,30.60
2019-06-26T10:05:24.468Z,30.90
2019-06-26T10:07:52.665Z,31.00
2019-06-26T10:10:20.446Z,31.10
2019-06-26T10:12:48.236Z,31.00
2019-06-26T10:15:16.104Z,31.00
2019-06-26T10:17:43.997Z,30.90
2019-06-26T10:20:11.951Z,31.00
2019-06-26T10:22:39.731Z,31.10
2019-06-26T10:25:11.234Z,31.20
2019-06-26T10:27:37.668Z,31.10
2019-06-26T10:30:06.720Z,31.00
2019-06-26T10:32:34.565Z,30.90
2019-06-26T10:35:02.415Z,31.10
2019-06-26T10:37:30.204Z,31.20
2019-06-26T10:39:57.982Z,31.20
2019-06-26T10:42:25.788Z,31.30
2019-06-26T10:44:53.595Z,31.30
2019-06-26T10:47:21.370Z,31.40
2019-06-26T10:49:49.158Z,31.40
2019-06-26T10:52:17.031Z,31.50
2019-06-26T10:54:44.839Z,31.60
2019-06-26T10:57:12.851Z,31.40
2019-06-26T10:59:40.641Z,31.50
2019-06-26T11:02:08.864Z,31.70
2019-06-26T11:04:36.664Z,31.60
2019-06-26T11:07:04.533Z,31.60
2019-06-26T11:09:32.337Z,31.60
2019-06-26T11:12:00.270Z,31.60
2019-06-26T11:14:28.204Z,31.50
2019-06-26T11:16:55.981Z,31.60
2019-06-26T11:19:23.799Z,31.80
2019-06-26T11:21:51.636Z,31.70
2019-06-26T11:24:19.494Z,31.70
2019-06-26T11:26:47.280Z,31.80
2019-06-26T11:29:15.089Z,31.80
2019-06-26T11:31:42.927Z,31.90
2019-06-26T11:34:10.757Z,31.70
2019-06-26T11:36:38.545Z,31.90
2019-06-26T11:39:06.977Z,32.10
2019-06-26T11:41:34.832Z,32.30
2019-06-26T11:44:02.753Z,32.20
2019-06-26T11:46:30.676Z,32.40
2019-06-26T11:48:58.464Z,32.60
2019-06-26T11:51:26.244Z,32.50
2019-06-26T11:53:54.088Z,32.70
2019-06-26T11:56:21.899Z,33.00
2019-06-26T11:58:49.679Z,32.90
2019-06-26T12:01:17.464Z,33.20
2019-06-26T12:03:45.378Z,33.20
2019-06-26T12:06:18.965Z,33.20
2019-06-26T12:08:42.726Z,33.40
2019-06-26T12:11:10.593Z,33.30
2019-06-26T12:13:38.665Z,33.10
2019-06-26T12:16:06.524Z,33.50
2019-06-26T12:18:34.294Z,33.50
2019-06-26T12:21:02.105Z,33.70
2019-06-26T12:23:29.976Z,34.50
2019-06-26T12:25:57.836Z,35.10
2019-06-26T12:28:25.940Z,35.40
2019-06-26T12:30:53.732Z,35.90
2019-06-26T12:33:21.508Z,36.70
2019-06-26T12:35:49.312Z,37.90
2019-06-26T12:38:17.149Z,37.90
2019-06-26T12:40:44.946Z,38.80
2019-06-26T12:43:12.807Z,38.90
2019-06-26T12:45:40.637Z,38.90
2019-06-26T12:48:08.428Z,40.30
2019-06-26T12:50:36.801Z,40.30
2019-06-26T12:53:04.788Z,40.30
2019-06-26T12:55:33.113Z,41.90
2019-06-26T12:58:12.448Z,42.00
2019-06-26T13:00:30.951Z,42.10
2019-06-26T13:02:58.757Z,41.90
2019-06-26T13:05:26.552Z,42.50
2019-06-26T13:07:54.332Z,42.50
2019-06-26T13:10:22.196Z,43.30
2019-06-26T13:12:49.967Z,43.50
2019-06-26T13:15:18.720Z,44.00
2019-06-26T13:17:46.483Z,43.50
2019-06-26T13:20:14.364Z,44.00
2019-06-26T13:22:42.224Z,44.70
2019-06-26T13:25:10.238Z,44.20
2019-06-26T13:27:38.038Z,45.40
2019-06-26T13:30:05.824Z,45.70
2019-06-26T13:32:33.637Z,45.40
2019-06-26T13:35:01.400Z,44.90
2019-06-26T13:37:29.259Z,45.10
2019-06-26T13:39:57.061Z,44.80
2019-06-26T13:42:24.847Z,43.80
2019-06-26T13:44:52.660Z,44.60
2019-06-26T13:47:21.275Z,44.80
2019-06-26T13:49:49.305Z,45.50
2019-06-26T13:52:17.111Z,44.70
2019-06-26T13:54:44.874Z,46.00
2019-06-26T13:57:15.741Z,45.10
2019-06-26T13:59:42.218Z,46.00
2019-06-26T14:02:09.996Z,44.90
2019-06-26T14:04:37.794Z,46.80
2019-06-26T14:07:08.521Z,45.50
2019-06-26T14:09:35.096Z,46.00
2019-06-26T14:12:02.968Z,46.30
2019-06-26T14:14:52.614Z,45.40
2019-06-26T14:17:00.263Z,44.20
2019-06-26T14:19:28.102Z,43.70
2019-06-26T14:21:55.888Z,44.20
2019-06-26T14:24:23.699Z,44.10
2019-06-26T14:26:51.719Z,42.50
2019-06-26T14:29:21.383Z,43.50
2019-06-26T14:31:49.031Z,44.20
2019-06-26T14:34:16.852Z,42.70
2019-06-26T14:36:44.657Z,44.00
2019-06-26T14:39:12.488Z,44.00
2019-06-26T14:41:40.332Z,43.70
2019-06-26T14:44:08.189Z,42.40
2019-06-26T14:46:35.968Z,42.70
2019-06-26T14:49:03.773Z,43.30
2019-06-26T14:51:42.288Z,42.40
2019-06-26T14:54:01.588Z,39.60
2019-06-26T14:56:29.383Z,39.80
2019-06-26T14:58:57.180Z,40.40
2019-06-26T15:01:24.991Z,41.60
2019-06-26T15:03:52.843Z,40.00
2019-06-26T15:06:20.939Z,38.20
2019-06-26T15:08:48.752Z,37.20
2019-06-26T15:11:16.547Z,34.80
2019-06-26T15:13:44.348Z,34.40
2019-06-26T15:16:12.416Z,33.60
2019-06-26T15:18:40.230Z,34.70
2019-06-26T15:21:08.087Z,33.30
2019-06-26T15:23:35.889Z,32.70
2019-06-26T15:26:03.760Z,32.70
2019-06-26T15:28:31.548Z,33.00
2019-06-26T15:30:59.342Z,33.00
2019-06-26T15:33:27.149Z,33.20
2019-06-26T15:35:54.932Z,32.80
2019-06-26T15:38:22.752Z,32.50
2019-06-26T15:40:50.528Z,32.90
2019-06-26T15:43:18.336Z,32.90
2019-06-26T15:45:46.150Z,33.30
2019-06-26T15:48:14.024Z,33.20
2019-06-26T15:50:41.821Z,33.40
2019-06-26T15:53:09.653Z,33.30
2019-06-26T15:55:37.446Z,33.00
2019-06-26T15:58:05.232Z,32.90
2019-06-26T16:00:33.049Z,32.80
2019-06-26T16:03:00.871Z,32.10
2019-06-26T16:05:28.657Z,32.40
2019-06-26T16:07:56.441Z,32.20
2019-06-26T16:10:24.244Z,32.50
2019-06-26T16:13:11.276Z,32.70
2019-06-26T16:15:39.442Z,31.90
2019-06-26T16:18:35.563Z,31.70
2019-06-26T16:21:03.375Z,31.70
2019-06-26T16:23:31.227Z,31.70
2019-06-26T16:25:59.102Z,31.20
2019-06-26T16:28:26.889Z,31.40
2019-06-26T16:30:54.753Z,31.40
2019-06-26T16:33:22.632Z,30.70
2019-06-26T16:35:50.444Z,30.80
2019-06-26T16:38:18.234Z,30.00
2019-06-26T16:40:46.030Z,30.60
2019-06-26T16:43:13.813Z,30.90
2019-06-26T16:45:41.901Z,31.20
2019-06-26T16:48:09.727Z,31.50
2019-06-26T16:50:37.518Z,31.20
2019-06-26T16:53:05.284Z,30.80
2019-06-26T16:55:33.093Z,30.50
2019-06-26T16:58:01.228Z,30.40
2019-06-26T17:00:29.023Z,29.50
2019-06-26T17:02:56.813Z,29.30
2019-06-26T17:05:25.025Z,29.70
2019-06-26T17:07:52.813Z,28.90
2019-06-26T17:10:20.876Z,29.10
2019-06-26T17:12:48.873Z,29.10
2019-06-26T17:15:16.701Z,29.00
2019-06-26T17:17:44.608Z,29.00
2019-06-26T17:20:12.813Z,28.90
2019-06-26T17:22:40.638Z,28.30
2019-06-26T17:25:08.632Z,28.40
2019-06-26T17:27:36.430Z,28.40
2019-06-26T17:30:04.672Z,28.50
2019-06-26T17:32:32.492Z,28.50
2019-06-26T17:35:00.296Z,28.60
2019-06-26T17:37:28.103Z,28.40
2019-06-26T17:39:55.880Z,28.00
2019-06-26T17:42:23.755Z,28.60
2019-06-26T17:44:51.620Z,28.80
2019-06-26T17:47:19.404Z,28.80
2019-06-26T17:49:47.207Z,28.90
2019-06-26T17:52:14.999Z,29.10
2019-06-26T17:54:42.768Z,29.20
2019-06-26T17:57:10.632Z,29.20
2019-06-26T17:59:38.403Z,28.60
2019-06-26T18:02:06.236Z,28.20
2019-06-26T18:04:34.023Z,28.20
2019-06-26T18:07:01.825Z,28.00
2019-06-26T18:09:29.600Z,27.80
2019-06-26T18:11:57.405Z,27.20
2019-06-26T18:14:25.204Z,26.50
2019-06-26T18:16:53.005Z,26.90
2019-06-26T18:19:20.848Z,26.60
2019-06-26T18:21:48.714Z,26.80
2019-06-26T18:24:16.856Z,27.20
2019-06-26T18:26:44.664Z,27.30
2019-06-26T18:29:12.578Z,27.20
2019-06-26T18:31:40.388Z,27.00
2019-06-26T18:34:08.150Z,27.20
2019-06-26T18:36:36.293Z,27.30
2019-06-26T18:39:05.400Z,27.20
2019-06-26T18:41:33.172Z,27.10
2019-06-26T18:44:00.979Z,27.00
2019-06-26T18:46:28.794Z,26.90
2019-06-26T18:48:56.601Z,26.50
2019-06-26T18:51:24.453Z,26.00
2019-06-26T18:53:53.850Z,25.80
2019-06-26T18:56:21.873Z,25.90
2019-06-26T18:58:49.680Z,26.00
2019-06-26T19:01:17.496Z,25.80
2019-06-26T19:03:45.275Z,25.50
2019-06-26T19:06:13.073Z,25.50
2019-06-26T19:08:41.068Z,25.50
2019-06-26T19:11:09.176Z,25.50
2019-06-26T19:13:37.305Z,25.40
2019-06-26T19:16:05.110Z,25.10
2019-06-26T19:18:32.918Z,25.00
2019-06-26T19:21:00.709Z,24.60
2019-06-26T19:23:28.504Z,24.20
2019-06-26T19:25:56.276Z,24.20
2019-06-26T19:28:24.145Z,24.40
2019-06-26T19:30:51.946Z,24.60
2019-06-26T19:33:19.733Z,24.50
2019-06-26T19:35:47.498Z,24.00
2019-06-26T19:38:15.601Z,24.30
2019-06-26T19:40:43.377Z,24.30
2019-06-26T19:43:11.316Z,23.80
2019-06-26T19:45:39.141Z,23.90
2019-06-26T19:48:06.934Z,23.80
2019-06-26T19:50:34.744Z,23.40
2019-06-26T19:53:02.612Z,23.10
2019-06-26T19:55:30.373Z,23.00
2019-06-26T19:57:58.200Z,22.90
2019-06-26T20:00:26.059Z,22.70
2019-06-26T20:02:54.069Z,22.70
2019-06-26T20:05:21.845Z,22.50
2019-06-26T20:07:49.945Z,22.60
2019-06-26T20:10:17.993Z,22.60
2019-06-26T20:12:45.806Z,22.10
2019-06-26T20:15:13.690Z,22.10
2019-06-26T20:17:41.478Z,22.10
2019-06-26T20:20:09.512Z,21.70
2019-06-26T20:22:37.487Z,21.90
2019-06-26T20:25:05.495Z,22.00
2019-06-26T20:27:33.269Z,22.00
2019-06-26T20:30:01.060Z,21.80
2019-06-26T20:32:28.936Z,21.50
2019-06-26T20:34:56.816Z,21.60
2019-06-26T20:37:24.604Z,21.40
2019-06-26T20:39:52.420Z,21.60
2019-06-26T20:42:20.213Z,21.20
2019-06-26T20:44:48.051Z,20.90
2019-06-26T20:47:15.876Z,20.90
2019-06-26T20:49:53.121Z,20.90
2019-06-26T20:52:13.293Z,20.90
2019-06-26T20:54:41.084Z,21.10
2019-06-26T20:57:08.864Z,20.70
2019-06-26T20:59:36.765Z,20.30
2019-06-26T21:02:04.586Z,20.50
2019-06-26T21:04:32.852Z,20.60
2019-06-26T21:07:00.641Z,20.30
2019-06-26T21:09:28.459Z,20.10
2019-06-26T21:11:56.554Z,19.90
2019-06-26T21:14:24.360Z,19.80
2019-06-26T21:16:52.137Z,19.40
2019-06-26T21:19:19.999Z,19.10
2019-06-26T21:21:47.884Z,19.30
2019-06-26T21:24:15.701Z,19.40
2019-06-26T21:26:43.469Z,19.40
2019-06-26T21:29:11.300Z,19.50
2019-06-26T21:31:39.087Z,19.60
2019-06-26T21:34:06.902Z,19.60
2019-06-26T21:36:34.712Z,19.40
2019-06-26T21:39:05.798Z,19.30
2019-06-26T21:41:32.312Z,19.50
2019-06-26T21:44:00.096Z,19.70
2019-06-26T21:46:27.925Z,19.70
2019-06-26T21:48:55.716Z,19.60
2019-06-26T21:51:23.502Z,19.40
2019-06-26T21:53:51.324Z,19.30
2019-06-26T21:56:19.319Z,19.30
2019-06-26T21:58:47.104Z,19.30
2019-06-26T22:01:14.928Z,19.40
2019-06-26T22:03:42.732Z,19.40
2019-06-26T22:06:10.547Z,19.40
2019-06-26T22:08:38.321Z,19.30
2019-06-26T22:11:06.097Z,19.30
2019-06-26T22:13:33.876Z,19.40
2019-06-26T22:16:01.714Z,19.50
2019-06-26T22:18:29.560Z,19.60
2019-06-26T22:20:57.373Z,19.40
2019-06-26T22:23:25.216Z,19.40
2019-06-26T22:25:53.002Z,19.40
2019-06-26T22:28:21.094Z,19.40
2019-06-26T22:30:49.034Z,19.30
2019-06-26T22:33:16.983Z,19.00
2019-06-26T22:36:04.032Z,18.90
2019-06-26T22:38:31.824Z,19.10
2019-06-26T22:40:59.625Z,19.20
2019-06-26T22:43:27.416Z,19.30
2019-06-26T22:45:55.211Z,19.10
2019-06-26T22:48:23.024Z,19.00
2019-06-26T22:50:50.806Z,18.90
2019-06-26T22:53:18.657Z,18.80
2019-06-26T22:55:46.432Z,18.80
2019-06-26T22:58:14.220Z,18.80
2019-06-26T23:00:42.108Z,18.70
2019-06-26T23:03:09.916Z,18.40
2019-06-26T23:05:37.691Z,18.70
2019-06-26T23:08:05.548Z,18.70
2019-06-26T23:10:33.321Z,19.00
2019-06-26T23:13:01.120Z,18.50
2019-06-26T23:15:28.910Z,18.60
2019-06-26T23:17:56.729Z,18.60
2019-06-26T23:20:24.513Z,18.60
2019-06-26T23:22:52.322Z,18.70
2019-06-26T23:25:20.926Z,18.90
2019-06-26T23:27:49.011Z,19.20
2019-06-26T23:30:17.340Z,18.60
2019-06-26T23:32:45.144Z,19.00
2019-06-26T23:35:13.109Z,18.90
2019-06-26T23:37:41.153Z,18.70
2019-06-26T23:40:09.127Z,18.40
2019-06-26T23:42:36.920Z,18.70
2019-06-26T23:45:04.802Z,18.70
2019-06-26T23:47:32.605Z,18.70
2019-06-26T23:50:00.415Z,18.70
2019-06-26T23:52:28.245Z,18.80
2019-06-26T23:54:56.028Z,18.70
2019-06-26T23:57:23.807Z,18.40
2019-06-26T23:59:51.653Z,18.50
